Time;durP1;ratioP1;P1;durP2;ratioP2;P2;SDS_P1;SDS_P2;PMS_P1;PMS_P2;Temp;Humidity;BMP_temperature;BMP_pressure;BME280_temperature;BME280_humidity;BME280_pressure;Samples;Min_cycle;Max_cycle;Signal;HPM_P1;HPM_P2
2022/06/09 00:00:57;;;;;;;5.90;3.70;;;19.30;99.90;;;;;;2087963;28;20063;-74
2022/06/09 00:02:04;;;;;;;5.70;4.00;;;19.30;99.90;;;;;;2088612;28;20752;-74
2022/06/09 00:03:15;;;;;;;5.03;3.85;;;19.30;99.90;;;;;;2088360;28;20027;-74
2022/06/09 00:04:40;;;;;;;4.57;4.00;;;19.20;99.90;;;;;;2089243;28;20126;-73
2022/06/09 00:05:42;;;;;;;4.90;4.15;;;19.20;99.90;;;;;;2088314;28;20048;-74
2022/06/09 00:06:50;;;;;;;5.82;4.00;;;19.20;99.90;;;;;;2088844;28;20020;-74
2022/06/09 00:07:53;;;;;;;4.13;3.50;;;19.10;99.90;;;;;;2088678;28;20033;-74
2022/06/09 00:08:54;;;;;;;4.30;3.90;;;19.10;99.90;;;;;;2079987;28;20033;-74
2022/06/09 00:10:01;;;;;;;4.85;3.75;;;19.10;99.90;;;;;;2079858;28;20514;-74
2022/06/09 00:11:06;;;;;;;4.05;3.65;;;19.10;99.90;;;;;;2089075;28;20108;-74
2022/06/09 00:12:08;;;;;;;4.88;4.03;;;19.10;99.90;;;;;;2089447;28;20047;-74
2022/06/09 00:13:09;;;;;;;4.07;3.70;;;19.00;99.90;;;;;;2089333;28;20107;-73
2022/06/09 00:14:09;;;;;;;4.10;3.70;;;19.00;99.90;;;;;;2089501;28;20104;-74
2022/06/09 00:15:13;;;;;;;4.20;3.80;;;19.00;99.90;;;;;;2072332;28;20500;-74
2022/06/09 00:16:14;;;;;;;5.18;4.35;;;19.00;99.90;;;;;;2073163;28;20026;-74
2022/06/09 00:17:16;;;;;;;5.60;4.50;;;19.00;99.90;;;;;;2089526;28;20431;-74
2022/06/09 00:18:16;;;;;;;4.90;4.00;;;19.00;99.90;;;;;;2089315;28;20024;-73
2022/06/09 00:19:18;;;;;;;7.40;4.32;;;18.90;99.90;;;;;;2089538;28;20112;-74
2022/06/09 00:20:18;;;;;;;4.53;3.80;;;18.90;99.90;;;;;;2088990;28;20100;-74
2022/06/09 00:21:21;;;;;;;5.45;3.78;;;18.90;99.90;;;;;;2089345;28;20622;-74
2022/06/09 00:22:22;;;;;;;5.25;3.90;;;18.90;99.90;;;;;;2089544;28;20068;-73
2022/06/09 00:23:23;;;;;;;4.45;4.05;;;18.90;99.90;;;;;;2080853;28;20037;-73
2022/06/09 00:24:24;;;;;;;4.75;3.75;;;18.80;99.90;;;;;;2080823;28;20041;-74
2022/06/09 00:25:25;;;;;;;4.57;4.18;;;18.80;99.90;;;;;;2089792;28;20017;-74
2022/06/09 00:26:26;;;;;;;6.35;4.72;;;18.80;99.90;;;;;;2078779;28;20491;-73
2022/06/09 00:27:28;;;;;;;6.63;4.85;;;18.80;99.90;;;;;;2072367;28;20033;-74
2022/06/09 00:28:29;;;;;;;5.65;4.40;;;18.70;99.90;;;;;;2073695;28;20030;-73
2022/06/09 00:29:30;;;;;;;5.85;4.30;;;18.70;99.90;;;;;;2077478;28;20037;-73
2022/06/09 00:30:30;;;;;;;6.60;4.68;;;18.70;99.90;;;;;;2094535;28;20020;-74
2022/06/09 00:31:32;;;;;;;5.15;4.47;;;18.70;99.90;;;;;;2093167;28;20029;-73
2022/06/09 00:32:33;;;;;;;4.63;4.10;;;18.60;99.90;;;;;;2092895;28;20025;-73
2022/06/09 00:33:33;;;;;;;4.70;4.25;;;18.60;99.90;;;;;;2093770;28;20105;-73
2022/06/09 00:34:35;;;;;;;4.93;4.30;;;18.60;99.90;;;;;;2089957;28;20029;-73
2022/06/09 00:35:35;;;;;;;4.63;4.10;;;18.60;99.90;;;;;;2091376;28;20117;-73
2022/06/09 00:36:36;;;;;;;7.28;4.00;;;18.60;99.90;;;;;;2097289;28;20105;-73
2022/06/09 00:37:37;;;;;;;5.43;4.07;;;18.60;99.90;;;;;;2091836;28;20020;-73
2022/06/09 00:38:38;;;;;;;4.22;3.83;;;18.50;99.90;;;;;;2092971;28;20372;-73
2022/06/09 00:39:39;;;;;;;5.32;3.70;;;18.50;99.90;;;;;;2095526;28;20024;-74
2022/06/09 00:40:40;;;;;;;4.25;3.70;;;18.50;99.90;;;;;;2088374;28;20040;-72
2022/06/09 00:41:44;;;;;;;4.70;3.30;;;18.40;99.90;;;;;;2081437;28;20025;-73
2022/06/09 00:42:45;;;;;;;5.05;3.38;;;18.40;99.90;;;;;;2090461;28;20051;-72
2022/06/09 00:43:46;;;;;;;4.18;3.22;;;18.40;99.90;;;;;;2091173;28;20017;-73
2022/06/09 00:44:47;;;;;;;3.60;3.20;;;18.30;99.90;;;;;;2092294;28;20063;-73
2022/06/09 00:46:10;;;;;;;3.22;2.92;;;18.30;99.90;;;;;;2091693;28;20476;-74
2022/06/09 00:47:28;;;;;;;4.78;3.63;;;18.30;99.90;;;;;;2089219;28;20021;-72
2022/06/09 00:48:48;;;;;;;4.35;3.30;;;18.20;99.90;;;;;;2091415;28;20016;-73
2022/06/09 00:50:01;;;;;;;;;;;18.20;99.90;;;;;;2091826;28;20457;-73
2022/06/09 00:51:20;;;;;;;4.60;3.10;;;18.20;99.90;;;;;;2089798;28;19966;-74
2022/06/09 00:52:24;;;;;;;6.05;3.30;;;18.20;99.90;;;;;;2089637;28;20074;-72
2022/06/09 00:53:29;;;;;;;3.60;3.20;;;18.10;99.90;;;;;;2083746;28;20586;-73
2022/06/09 00:54:42;;;;;;;4.03;3.13;;;18.10;99.90;;;;;;2072956;28;20072;-73
2022/06/09 00:55:43;;;;;;;6.40;3.08;;;18.10;99.90;;;;;;2083364;28;20032;-74
2022/06/09 00:57:11;;;;;;;5.22;3.00;;;18.10;99.90;;;;;;2083637;28;20033;-73
2022/06/09 00:58:16;;;;;;;8.57;3.28;;;18.00;99.90;;;;;;2088619;28;20108;-73
2022/06/09 00:59:21;;;;;;;7.32;3.03;;;18.00;99.90;;;;;;2089290;28;20025;-73
2022/06/09 01:00:26;;;;;;;6.13;3.13;;;17.90;99.90;;;;;;2092558;28;20437;-74
2022/06/09 01:01:28;;;;;;;6.97;3.05;;;17.90;99.90;;;;;;2084366;28;20056;-74
2022/06/09 01:02:31;;;;;;;4.15;2.95;;;17.90;99.90;;;;;;2083040;28;20025;-74
2022/06/09 01:04:03;;;;;;;3.75;2.80;;;17.90;99.90;;;;;;2094159;28;20040;-74
2022/06/09 01:05:05;;;;;;;3.97;2.97;;;17.80;99.90;;;;;;2090894;28;20050;-73
2022/06/09 01:06:15;;;;;;;3.50;2.80;;;17.80;99.90;;;;;;2084003;28;20037;-73
2022/06/09 01:07:24;;;;;;;3.50;2.72;;;17.80;99.90;;;;;;2081296;28;20049;-73
2022/06/09 01:08:25;;;;;;;3.33;3.00;;;17.80;99.90;;;;;;2092438;28;20543;-73
2022/06/09 01:09:26;;;;;;;4.70;2.72;;;17.80;99.90;;;;;;2092776;28;20028;-73
2022/06/09 01:10:29;;;;;;;6.57;2.88;;;17.70;99.90;;;;;;2091671;28;20024;-72
2022/06/09 01:11:30;;;;;;;6.20;3.20;;;17.70;99.90;;;;;;2092700;28;20039;-73
2022/06/09 01:12:39;;;;;;;3.65;2.72;;;17.70;99.90;;;;;;2091327;28;20040;-72
2022/06/09 01:13:40;;;;;;;6.53;2.90;;;17.70;99.90;;;;;;2089898;28;20020;-73
2022/06/09 01:14:41;;;;;;;3.85;2.90;;;17.60;99.90;;;;;;2091037;28;20503;-73
2022/06/09 01:15:54;;;;;;;3.85;2.83;;;17.60;99.90;;;;;;2092748;28;20101;-73
2022/06/09 01:17:03;;;;;;;4.38;2.85;;;17.60;99.90;;;;;;2088577;28;20387;-74
2022/06/09 01:18:13;;;;;;;5.73;2.80;;;17.60;99.90;;;;;;2091228;28;20483;-73
2022/06/09 01:19:28;;;;;;;5.40;3.15;;;17.50;99.90;;;;;;2083258;28;20271;-74
2022/06/09 01:20:57;;;;;;;6.18;3.00;;;17.50;99.90;;;;;;2077407;28;20438;-73
2022/06/09 01:22:13;;;;;;;4.68;3.00;;;17.60;99.90;;;;;;2076649;28;20033;-74
2022/06/09 01:23:32;;;;;;;5.15;3.00;;;17.50;99.90;;;;;;2087266;28;20079;-73
2022/06/09 01:25:10;;;;;;;4.15;2.90;;;17.40;99.90;;;;;;2093977;28;20136;-73
2022/06/09 01:26:29;;;;;;;3.47;2.90;;;17.50;99.90;;;;;;2076322;28;20461;-74
2022/06/09 01:27:57;;;;;;;5.30;2.70;;;17.40;99.90;;;;;;2076244;28;20029;-73
2022/06/09 01:29:31;;;;;;;3.63;2.70;;;17.40;99.90;;;;;;2089568;28;20051;-74
2022/06/09 01:30:37;;;;;;;3.90;2.70;;;17.40;99.90;;;;;;2093243;28;20569;-73
2022/06/09 01:31:58;;;;;;;4.80;2.60;;;17.40;99.90;;;;;;2090095;28;20032;-74
2022/06/09 01:33:10;;;;;;;4.20;2.58;;;17.40;99.90;;;;;;2087194;28;20029;-73
2022/06/09 01:34:25;;;;;;;3.88;2.78;;;17.40;99.90;;;;;;2094376;28;20020;-73
2022/06/09 01:35:41;;;;;;;4.38;2.80;;;17.40;99.90;;;;;;2091868;28;20454;-72
2022/06/09 01:37:07;;;;;;;4.05;2.80;;;17.40;99.90;;;;;;2078159;28;20028;-71
2022/06/09 01:38:09;;;;;;;5.70;2.65;;;17.40;99.90;;;;;;2079481;28;20409;-73
2022/06/09 01:39:10;;;;;;;4.30;2.65;;;17.40;99.90;;;;;;2085653;28;20412;-72
2022/06/09 01:40:13;;;;;;;5.45;2.63;;;17.40;99.90;;;;;;2093400;28;20112;-73
2022/06/09 01:41:15;;;;;;;5.82;2.85;;;17.40;99.90;;;;;;2093582;28;20017;-72
2022/06/09 01:42:20;;;;;;;5.43;2.72;;;17.40;99.90;;;;;;2079766;28;20747;-72
2022/06/09 01:43:20;;;;;;;5.68;2.60;;;17.40;99.90;;;;;;2084669;28;20033;-73
2022/06/09 01:44:24;;;;;;;4.95;2.60;;;17.40;99.90;;;;;;2092478;28;20028;-72
2022/06/09 01:45:44;;;;;;;3.97;2.58;;;17.40;99.90;;;;;;2084740;28;20025;-73
2022/06/09 01:46:47;;;;;;;5.53;2.88;;;17.40;99.90;;;;;;2085319;28;20025;-73
2022/06/09 01:47:53;;;;;;;3.63;2.70;;;17.30;99.90;;;;;;2084317;28;20091;-73
2022/06/09 01:48:57;;;;;;;5.35;2.88;;;17.30;99.90;;;;;;2091171;28;20025;-73
2022/06/09 01:50:02;;;;;;;5.15;2.60;;;17.30;99.90;;;;;;2093404;28;20051;-72
2022/06/09 01:51:06;;;;;;;4.80;2.78;;;17.30;99.90;;;;;;2091113;28;20064;-73
2022/06/09 01:52:07;;;;;;;3.85;2.40;;;17.30;99.90;;;;;;2079515;28;20040;-73
2022/06/09 01:53:15;;;;;;;5.22;2.42;;;17.30;99.90;;;;;;2079531;28;20721;-73
2022/06/09 01:54:25;;;;;;;5.75;2.42;;;17.30;99.90;;;;;;2088541;28;20022;-73
2022/06/09 01:55:28;;;;;;;5.60;2.47;;;17.30;99.90;;;;;;2088509;28;20365;-73
2022/06/09 01:56:35;;;;;;;3.50;2.63;;;17.30;99.90;;;;;;2088409;28;20088;-73
2022/06/09 01:57:38;;;;;;;3.13;2.30;;;17.30;99.90;;;;;;2088332;28;20529;-72
2022/06/09 01:58:51;;;;;;;2.63;2.10;;;17.20;99.90;;;;;;2088479;28;20028;-72
2022/06/09 01:59:57;;;;;;;2.78;2.20;;;17.20;99.90;;;;;;2088472;28;20047;-73
2022/06/09 02:01:01;;;;;;;5.30;2.40;;;17.20;99.90;;;;;;2088435;28;20028;-72
2022/06/09 02:02:12;;;;;;;7.40;2.58;;;17.20;99.90;;;;;;2079672;28;20502;-72
2022/06/09 02:03:21;;;;;;;4.22;2.50;;;17.20;99.90;;;;;;2081050;28;20412;-73
2022/06/09 02:06:47;;;;;;;5.20;2.40;;;17.20;99.90;;;;;;2088033;28;20024;-73
2022/06/09 02:07:50;;;;;;;4.55;2.42;;;17.20;99.90;;;;;;2079302;28;20125;-73
2022/06/09 02:08:51;;;;;;;3.45;2.10;;;17.20;99.90;;;;;;2079655;28;20118;-73
2022/06/09 02:09:54;;;;;;;3.85;2.40;;;17.20;99.90;;;;;;2088200;28;20048;-73
2022/06/09 02:10:59;;;;;;;4.57;2.28;;;17.20;99.90;;;;;;2088096;28;20032;-73
2022/06/09 02:12:05;;;;;;;4.50;2.30;;;17.20;99.90;;;;;;2088236;28;20399;-72
2022/06/09 02:13:15;;;;;;;3.97;2.10;;;17.20;99.90;;;;;;2079017;28;20542;-73
2022/06/09 02:14:17;;;;;;;2.53;1.95;;;17.20;99.90;;;;;;2080811;28;20503;-73
2022/06/09 02:15:25;;;;;;;2.58;2.10;;;17.20;99.90;;;;;;2087743;28;20056;-73
2022/06/09 02:16:26;;;;;;;3.92;2.20;;;17.20;99.90;;;;;;2088169;28;20423;-71
2022/06/09 02:17:27;;;;;;;2.13;1.90;;;17.20;99.90;;;;;;2088361;28;20029;-71
2022/06/09 02:18:31;;;;;;;3.42;1.95;;;17.20;99.90;;;;;;2088279;28;20059;-70
2022/06/09 02:19:33;;;;;;;2.75;2.10;;;17.20;99.90;;;;;;2079197;28;20036;-69
2022/06/09 02:20:35;;;;;;;4.65;2.00;;;17.30;99.90;;;;;;2079430;28;20060;-70
2022/06/09 02:21:38;;;;;;;3.42;2.15;;;17.30;99.90;;;;;;2087955;28;20075;-70
2022/06/09 02:22:39;;;;;;;2.20;1.98;;;17.30;99.90;;;;;;2087749;28;20108;-71
2022/06/09 02:23:39;;;;;;;3.13;2.05;;;17.40;99.90;;;;;;2087609;28;20763;-71
2022/06/09 02:24:40;;;;;;;3.95;2.40;;;17.40;99.90;;;;;;2088048;28;20541;-69
2022/06/09 02:25:41;;;;;;;3.70;2.30;;;17.40;99.90;;;;;;2088223;28;20383;-70
2022/06/09 02:26:42;;;;;;;4.15;2.15;;;17.40;99.90;;;;;;2088214;28;20044;-69
2022/06/09 02:27:42;;;;;;;3.55;2.20;;;17.40;99.90;;;;;;2087860;28;20048;-72
2022/06/09 02:28:43;;;;;;;2.42;2.00;;;17.40;99.90;;;;;;2088137;28;20048;-70
2022/06/09 02:29:44;;;;;;;3.53;2.10;;;17.40;99.90;;;;;;2088022;28;20122;-69
2022/06/09 02:30:45;;;;;;;2.65;2.03;;;17.40;99.90;;;;;;2088091;28;20029;-68
2022/06/09 02:31:47;;;;;;;2.10;1.90;;;17.50;99.90;;;;;;2088030;28;20098;-71
2022/06/09 02:32:48;;;;;;;2.67;2.00;;;17.50;99.90;;;;;;2078990;28;20029;-70
2022/06/09 02:33:50;;;;;;;2.95;1.90;;;17.50;99.90;;;;;;2079223;28;20786;-70
2022/06/09 02:34:51;;;;;;;4.93;2.05;;;17.60;99.90;;;;;;2087747;28;20025;-70
2022/06/09 02:35:52;;;;;;;3.92;2.00;;;17.60;99.90;;;;;;2079027;28;20476;-70
2022/06/09 02:36:53;;;;;;;3.28;1.92;;;17.60;99.90;;;;;;2079252;28;20041;-70
2022/06/09 02:37:53;;;;;;;2.88;2.13;;;17.60;99.90;;;;;;2088008;28;20071;-70
2022/06/09 02:38:54;;;;;;;2.95;1.90;;;17.60;99.90;;;;;;2088053;28;20033;-70
2022/06/09 02:39:55;;;;;;;2.78;2.10;;;17.60;99.90;;;;;;2087925;28;20108;-70
2022/06/09 02:40:55;;;;;;;2.72;1.70;;;17.60;99.90;;;;;;2087899;28;20036;-71
2022/06/09 02:41:56;;;;;;;2.05;1.80;;;17.60;99.90;;;;;;2087924;28;20029;-71
2022/06/09 02:42:57;;;;;;;2.95;1.90;;;17.70;99.90;;;;;;2087728;28;20141;-69
2022/06/09 02:43:58;;;;;;;3.67;2.00;;;17.60;99.90;;;;;;2087937;28;20033;-70
2022/06/09 02:44:58;;;;;;;3.58;2.22;;;17.70;99.90;;;;;;2087786;28;20032;-71
2022/06/09 02:46:01;;;;;;;3.13;2.00;;;17.70;99.90;;;;;;2087888;28;20121;-70
2022/06/09 02:47:01;;;;;;;3.38;2.00;;;17.60;99.90;;;;;;2087846;28;20017;-70
2022/06/09 02:48:03;;;;;;;3.90;2.15;;;17.60;99.90;;;;;;2087548;28;20071;-70
2022/06/09 02:49:04;;;;;;;3.40;1.70;;;17.60;99.90;;;;;;2087942;28;20024;-70
2022/06/09 02:50:06;;;;;;;2.92;2.05;;;17.60;99.90;;;;;;2087980;28;20103;-71
2022/06/09 02:51:23;;;;;;;4.22;2.20;;;17.60;99.90;;;;;;2087940;28;20032;-70
2022/06/09 02:52:23;;;;;;;3.38;2.20;;;17.60;99.90;;;;;;2088036;28;20036;-70
2022/06/09 02:53:24;;;;;;;2.72;1.95;;;17.60;99.90;;;;;;2087918;28;20108;-70
2022/06/09 02:54:25;;;;;;;2.33;1.77;;;17.60;99.90;;;;;;2088101;28;20510;-70
2022/06/09 02:55:26;;;;;;;2.40;1.77;;;17.70;99.90;;;;;;2087699;28;20024;-70
2022/06/09 02:56:27;;;;;;;3.85;2.03;;;17.70;99.90;;;;;;2087301;28;20020;-70
2022/06/09 02:57:29;;;;;;;2.67;1.98;;;17.70;99.90;;;;;;2087328;28;20037;-70
2022/06/09 02:58:29;;;;;;;2.65;1.88;;;17.70;99.90;;;;;;2087935;28;20045;-68
2022/06/09 02:59:30;;;;;;;2.88;1.70;;;17.70;99.90;;;;;;2087964;28;20032;-69
2022/06/09 03:00:32;;;;;;;4.40;2.00;;;17.70;99.90;;;;;;2087760;28;20484;-70
2022/06/09 03:01:33;;;;;;;2.42;1.70;;;17.70;99.90;;;;;;2087902;28;20051;-69
2022/06/09 03:02:34;;;;;;;3.90;2.00;;;17.70;99.90;;;;;;2087800;28;20040;-70
2022/06/09 03:03:34;;;;;;;1.83;1.63;;;17.70;99.90;;;;;;2087752;28;20162;-70
2022/06/09 03:04:35;;;;;;;4.43;1.67;;;17.70;99.90;;;;;;2087578;28;20121;-69
2022/06/09 03:05:36;;;;;;;4.50;1.80;;;17.70;99.90;;;;;;2087878;28;20025;-69
2022/06/09 03:06:37;;;;;;;4.53;1.80;;;17.70;99.90;;;;;;2087860;28;20087;-69
2022/06/09 03:07:37;;;;;;;2.67;1.80;;;17.70;99.90;;;;;;2087084;28;20488;-69
2022/06/09 03:08:38;;;;;;;2.72;1.70;;;17.70;99.90;;;;;;2087109;28;20021;-71
2022/06/09 03:09:40;;;;;;;3.38;1.95;;;17.70;99.90;;;;;;2087647;28;20363;-69
2022/06/09 03:10:41;;;;;;;1.90;1.67;;;17.80;99.90;;;;;;2087703;28;20025;-70
2022/06/09 03:11:41;;;;;;;2.03;1.70;;;17.80;99.90;;;;;;2087727;28;20681;-69
2022/06/09 03:12:43;;;;;;;2.58;1.65;;;17.80;99.90;;;;;;2087139;28;20502;-70
2022/06/09 03:13:44;;;;;;;1.88;1.70;;;17.80;99.90;;;;;;2087192;28;20063;-70
2022/06/09 03:14:45;;;;;;;4.93;1.90;;;17.80;99.90;;;;;;2087591;28;20787;-69
2022/06/09 03:15:47;;;;;;;2.25;1.77;;;17.80;99.90;;;;;;2087877;28;20028;-69
2022/06/09 03:16:48;;;;;;;2.45;1.60;;;17.80;99.90;;;;;;2087831;28;20039;-69
2022/06/09 03:17:50;;;;;;;2.65;1.85;;;17.80;99.90;;;;;;2087749;28;20032;-71
2022/06/09 03:18:50;;;;;;;1.70;1.60;;;17.80;99.90;;;;;;2087678;28;20033;-70
2022/06/09 03:19:51;;;;;;;3.58;1.70;;;17.90;99.90;;;;;;2087752;28;20024;-71
2022/06/09 03:20:52;;;;;;;3.05;1.75;;;17.90;99.90;;;;;;2087037;28;20097;-70
2022/06/09 03:21:52;;;;;;;4.22;1.70;;;17.90;99.90;;;;;;2087133;28;20100;-71
2022/06/09 03:22:53;;;;;;;3.00;1.60;;;17.90;99.90;;;;;;2087589;28;20452;-69
2022/06/09 03:23:54;;;;;;;2.45;1.70;;;17.90;99.90;;;;;;2087783;28;20065;-70
2022/06/09 03:24:54;;;;;;;2.22;1.50;;;18.00;99.90;;;;;;2087491;28;20798;-71
2022/06/09 03:25:55;;;;;;;2.35;1.60;;;18.00;99.90;;;;;;2087815;28;20036;-70
2022/06/09 03:26:56;;;;;;;2.92;1.75;;;18.00;99.90;;;;;;2087861;28;20585;-69
2022/06/09 03:27:57;;;;;;;4.18;2.00;;;18.00;99.90;;;;;;2087077;28;20230;-70
2022/06/09 03:28:58;;;;;;;4.97;2.20;;;18.00;99.90;;;;;;2087284;28;20530;-69
2022/06/09 03:30:01;;;;;;;4.65;1.98;;;17.90;99.90;;;;;;2087014;28;20037;-71
2022/06/09 03:31:03;;;;;;;3.28;2.00;;;17.90;99.90;;;;;;2087258;28;20114;-69
2022/06/09 03:32:04;;;;;;;3.85;1.90;;;17.90;99.90;;;;;;2087964;28;20037;-69
2022/06/09 03:33:05;;;;;;;3.25;1.80;;;17.90;99.90;;;;;;2087704;28;20037;-69
2022/06/09 03:34:05;;;;;;;2.78;1.63;;;17.90;99.90;;;;;;2087610;28;20025;-70
2022/06/09 03:35:07;;;;;;;2.03;1.67;;;17.90;99.90;;;;;;2086792;28;20079;-70
2022/06/09 03:36:08;;;;;;;3.95;1.90;;;17.90;99.90;;;;;;2087296;28;20017;-69
2022/06/09 03:37:09;;;;;;;2.88;1.98;;;17.90;99.90;;;;;;2087805;28;20029;-70
2022/06/09 03:38:10;;;;;;;2.05;1.70;;;17.90;99.90;;;;;;2087552;28;20032;-70
2022/06/09 03:39:11;;;;;;;4.63;2.38;;;17.90;99.90;;;;;;2087820;28;20017;-70
2022/06/09 03:40:15;;;;;;;5.65;2.05;;;17.80;99.90;;;;;;2087778;28;20087;-70
2022/06/09 03:41:16;;;;;;;5.93;2.08;;;17.80;99.90;;;;;;2087784;28;20029;-70
2022/06/09 03:42:16;;;;;;;3.08;1.88;;;17.70;99.90;;;;;;2087526;28;20029;-69
2022/06/09 03:43:17;;;;;;;4.60;2.03;;;17.70;99.90;;;;;;2087515;28;20107;-71
2022/06/09 03:44:18;;;;;;;7.15;2.25;;;17.70;99.90;;;;;;2087634;28;20326;-71
2022/06/09 03:45:19;;;;;;;3.78;1.95;;;17.60;99.90;;;;;;2087455;28;20099;-70
2022/06/09 03:46:19;;;;;;;2.45;1.60;;;17.60;99.90;;;;;;2087738;28;20088;-72
2022/06/09 03:47:22;;;;;;;2.45;1.65;;;17.60;99.90;;;;;;2087334;28;20120;-71
2022/06/09 03:48:23;;;;;;;6.07;1.95;;;17.60;99.90;;;;;;2079161;28;20503;-71
2022/06/09 03:49:23;;;;;;;4.05;2.10;;;17.60;99.90;;;;;;2087282;28;20060;-72
2022/06/09 03:50:27;;;;;;;4.30;1.90;;;17.70;99.90;;;;;;2078813;28;20117;-70
2022/06/09 03:51:27;;;;;;;3.72;1.90;;;17.70;99.90;;;;;;2071128;28;20488;-72
2022/06/09 03:52:28;;;;;;;2.85;2.00;;;17.60;99.90;;;;;;2079309;28;20123;-71
2022/06/09 03:53:29;;;;;;;3.80;1.85;;;17.60;99.90;;;;;;2079290;28;20068;-73
2022/06/09 03:54:29;;;;;;;3.88;2.10;;;17.60;99.90;;;;;;2070687;28;20493;-69
2022/06/09 03:55:30;;;;;;;6.25;1.90;;;17.60;99.90;;;;;;2070289;28;20033;-69
2022/06/09 03:56:31;;;;;;;3.78;1.88;;;17.60;99.90;;;;;;2070744;28;20037;-69
2022/06/09 03:57:31;;;;;;;4.20;1.90;;;17.60;99.90;;;;;;2079570;28;20160;-70
2022/06/09 03:58:32;;;;;;;4.38;2.00;;;17.60;99.90;;;;;;2079485;28;20025;-70
2022/06/09 03:59:32;;;;;;;3.08;1.80;;;17.60;99.90;;;;;;2079510;28;20477;-69
2022/06/09 04:00:33;;;;;;;4.60;2.00;;;17.60;99.90;;;;;;2079109;28;20083;-69
2022/06/09 04:01:34;;;;;;;3.42;1.90;;;17.60;99.90;;;;;;2079559;28;20035;-71
2022/06/09 04:02:35;;;;;;;3.05;2.13;;;17.60;99.90;;;;;;2079466;28;20028;-69
2022/06/09 04:03:35;;;;;;;3.17;2.10;;;17.60;99.90;;;;;;2079555;28;20075;-70
2022/06/09 04:04:37;;;;;;;3.03;2.00;;;17.60;99.90;;;;;;2079187;28;20108;-69
2022/06/09 04:05:37;;;;;;;3.25;2.10;;;17.60;99.90;;;;;;2079417;28;20065;-70
2022/06/09 04:06:38;;;;;;;3.25;1.80;;;17.60;99.90;;;;;;2079404;28;20021;-69
2022/06/09 04:07:41;;;;;;;4.18;2.10;;;17.60;99.90;;;;;;2079355;28;20508;-69
2022/06/09 04:08:42;;;;;;;4.97;2.30;;;17.60;99.90;;;;;;2070495;28;20105;-71
2022/06/09 04:09:43;;;;;;;3.13;2.03;;;17.60;99.90;;;;;;2070754;28;20026;-70
2022/06/09 04:10:43;;;;;;;6.25;2.72;;;17.60;99.90;;;;;;2079386;28;20678;-69
2022/06/09 04:11:44;;;;;;;6.05;3.10;;;17.60;99.90;;;;;;2079518;28;20033;-71
2022/06/09 04:12:45;;;;;;;2.80;2.00;;;17.60;99.90;;;;;;2079136;28;20026;-70
2022/06/09 04:13:46;;;;;;;3.30;1.95;;;17.60;99.90;;;;;;2079320;28;20030;-69
2022/06/09 04:14:47;;;;;;;3.70;2.08;;;17.60;99.90;;;;;;2078572;28;20030;-70
2022/06/09 04:15:48;;;;;;;4.75;2.00;;;17.70;99.90;;;;;;2078596;28;20049;-70
2022/06/09 04:16:49;;;;;;;3.63;2.08;;;17.70;99.90;;;;;;2079228;28;20029;-70
2022/06/09 04:17:52;;;;;;;3.08;2.00;;;17.70;99.90;;;;;;2079300;28;20456;-69
2022/06/09 04:18:53;;;;;;;3.72;1.90;;;17.70;99.90;;;;;;2079270;28;20047;-71
2022/06/09 04:19:54;;;;;;;3.13;1.77;;;17.70;99.90;;;;;;2079265;28;20033;-71
2022/06/09 04:20:54;;;;;;;3.17;1.80;;;17.70;99.90;;;;;;2079313;28;20041;-72
2022/06/09 04:21:55;;;;;;;4.03;2.22;;;17.80;99.90;;;;;;2086966;28;20029;-69
2022/06/09 04:22:56;;;;;;;3.45;2.05;;;17.80;99.90;;;;;;2078800;28;20033;-70
2022/06/09 04:23:57;;;;;;;4.25;2.20;;;17.80;99.90;;;;;;2070654;28;20118;-71
2022/06/09 04:24:57;;;;;;;3.42;2.00;;;17.80;99.90;;;;;;2079137;28;20036;-69
2022/06/09 04:25:58;;;;;;;4.00;2.08;;;17.80;99.90;;;;;;2079234;28;20139;-70
2022/06/09 04:26:59;;;;;;;5.75;2.08;;;17.80;99.90;;;;;;2079353;28;20072;-72
2022/06/09 04:28:00;;;;;;;3.72;2.42;;;17.80;99.90;;;;;;2079316;28;20029;-70
2022/06/09 04:29:01;;;;;;;4.40;2.50;;;17.80;99.90;;;;;;2079522;28;20053;-69
2022/06/09 04:30:02;;;;;;;3.50;2.20;;;17.80;99.90;;;;;;2070454;28;20026;-70
2022/06/09 04:31:03;;;;;;;4.25;2.40;;;17.80;99.90;;;;;;2070553;28;20516;-70
2022/06/09 04:32:04;;;;;;;3.97;2.10;;;17.90;99.90;;;;;;2079191;28;20041;-70
2022/06/09 04:33:05;;;;;;;5.68;2.00;;;17.90;99.90;;;;;;2079200;28;20049;-71
2022/06/09 04:34:06;;;;;;;2.83;1.80;;;17.90;99.90;;;;;;2079294;28;20068;-70
2022/06/09 04:35:07;;;;;;;5.43;2.20;;;17.90;99.90;;;;;;2078984;28;20048;-70
2022/06/09 04:36:09;;;;;;;3.10;2.00;;;18.00;99.90;;;;;;2079050;28;20076;-71
2022/06/09 04:37:09;;;;;;;4.88;2.20;;;18.00;99.90;;;;;;2079204;28;20746;-72
2022/06/09 04:38:11;;;;;;;3.00;1.75;;;18.00;99.90;;;;;;2079280;28;20014;-70
2022/06/09 04:39:11;;;;;;;5.82;2.17;;;18.10;99.90;;;;;;2079407;28;20036;-71
2022/06/09 04:40:12;;;;;;;4.30;1.85;;;18.20;99.90;;;;;;2079130;28;20036;-70
2022/06/09 04:41:14;;;;;;;3.78;1.90;;;18.20;99.90;;;;;;2079348;28;20029;-71
2022/06/09 04:42:15;;;;;;;3.80;1.80;;;18.30;99.90;;;;;;2079269;28;20042;-71
2022/06/09 04:43:16;;;;;;;3.67;2.05;;;18.40;99.90;;;;;;2079171;28;20063;-70
2022/06/09 04:44:16;;;;;;;3.47;1.80;;;18.50;99.90;;;;;;2079204;28;20037;-70
2022/06/09 04:45:17;;;;;;;5.65;2.17;;;18.60;99.90;;;;;;2079008;28;20081;-70
2022/06/09 04:46:21;;;;;;;5.03;1.83;;;18.60;99.90;;;;;;2079472;28;20029;-70
2022/06/09 04:47:21;;;;;;;3.38;1.70;;;18.50;99.90;;;;;;2080270;28;20028;-72
2022/06/09 04:48:22;;;;;;;2.35;1.70;;;18.60;99.90;;;;;;2088241;28;20457;-70
2022/06/09 04:49:22;;;;;;;2.45;1.67;;;18.70;99.90;;;;;;2088788;28;20031;-71
2022/06/09 04:50:24;;;;;;;3.00;1.73;;;18.70;99.90;;;;;;2088815;28;20505;-70
2022/06/09 04:51:26;;;;;;;3.83;2.00;;;18.70;99.90;;;;;;2089052;28;20021;-71
2022/06/09 04:52:26;;;;;;;3.58;2.40;;;18.70;99.90;;;;;;2088721;28;20029;-70
2022/06/09 04:53:27;;;;;;;2.42;1.70;;;18.70;99.90;;;;;;2088912;28;20033;-70
2022/06/09 04:54:28;;;;;;;2.35;1.60;;;18.80;99.90;;;;;;2088871;28;20032;-71
2022/06/09 04:55:29;;;;;;;3.63;1.83;;;18.80;99.90;;;;;;2088650;28;20029;-72
2022/06/09 04:56:29;;;;;;;2.97;1.80;;;18.80;99.90;;;;;;2088355;28;20029;-70
2022/06/09 04:57:30;;;;;;;4.93;1.75;;;18.80;99.90;;;;;;2088348;28;20037;-73
2022/06/09 04:58:31;;;;;;;3.47;2.00;;;18.80;99.90;;;;;;2088905;28;20025;-71
2022/06/09 04:59:32;;;;;;;5.95;2.22;;;18.70;99.90;;;;;;2088338;28;20530;-73
2022/06/09 05:00:33;;;;;;;3.25;1.70;;;18.60;99.90;;;;;;2088239;28;20115;-71
2022/06/09 05:01:33;;;;;;;4.07;1.65;;;18.60;99.90;;;;;;2088926;28;20013;-71
2022/06/09 05:02:34;;;;;;;4.20;1.77;;;18.50;99.90;;;;;;2088234;28;20033;-70
2022/06/09 05:03:34;;;;;;;2.95;1.80;;;18.50;99.90;;;;;;2088124;28;20514;-71
2022/06/09 05:04:35;;;;;;;2.70;1.70;;;18.30;99.90;;;;;;2087968;28;20095;-70
2022/06/09 05:05:36;;;;;;;2.08;1.55;;;18.20;99.90;;;;;;2088406;28;20111;-71
2022/06/09 05:06:37;;;;;;;4.22;1.83;;;18.20;99.90;;;;;;2088878;28;20097;-71
2022/06/09 05:07:37;;;;;;;3.55;1.77;;;18.20;99.90;;;;;;2088770;28;20025;-70
2022/06/09 05:08:40;;;;;;;3.92;2.17;;;18.20;99.90;;;;;;2088252;28;20064;-71
2022/06/09 05:09:40;;;;;;;4.20;2.40;;;18.20;99.90;;;;;;2088136;28;20035;-71
2022/06/09 05:10:43;;;;;;;3.47;2.00;;;18.20;99.90;;;;;;2088758;28;20502;-69
2022/06/09 05:11:44;;;;;;;3.55;1.95;;;18.20;99.90;;;;;;2088779;28;20100;-69
2022/06/09 05:12:45;;;;;;;5.60;1.98;;;18.20;99.90;;;;;;2088643;28;20070;-70
2022/06/09 05:13:46;;;;;;;2.28;1.80;;;18.10;99.90;;;;;;2088786;28;20498;-72
2022/06/09 05:14:47;;;;;;;2.83;1.70;;;18.10;99.90;;;;;;2088373;28;20086;-70
2022/06/09 05:15:51;;;;;;;3.45;1.80;;;18.10;99.90;;;;;;2088667;28;20028;-70
2022/06/09 05:16:51;;;;;;;3.22;2.00;;;18.10;99.90;;;;;;2088699;28;20337;-69
2022/06/09 05:17:53;;;;;;;4.22;2.00;;;18.20;99.90;;;;;;2088728;28;20029;-69
2022/06/09 05:18:54;;;;;;;4.80;1.90;;;18.10;99.90;;;;;;2088114;28;20036;-69
2022/06/09 05:19:54;;;;;;;4.32;2.03;;;18.20;99.90;;;;;;2087978;28;20059;-73
2022/06/09 05:20:57;;;;;;;5.10;2.10;;;18.20;99.90;;;;;;2088668;28;20072;-71
2022/06/09 05:21:58;;;;;;;4.80;2.00;;;18.20;99.90;;;;;;2088594;28;20056;-69
2022/06/09 05:22:58;;;;;;;3.63;1.95;;;18.20;99.90;;;;;;2087942;28;20032;-70
2022/06/09 05:24:00;;;;;;;4.05;1.77;;;18.20;99.90;;;;;;2087998;28;20045;-69
2022/06/09 05:25:01;;;;;;;4.20;1.83;;;18.20;99.90;;;;;;2088355;28;20040;-70
2022/06/09 05:26:04;;;;;;;5.13;2.10;;;18.20;99.90;;;;;;2088667;28;20446;-70
2022/06/09 05:27:05;;;;;;;4.68;1.95;;;18.20;99.90;;;;;;2088457;28;20032;-73
2022/06/09 05:28:06;;;;;;;5.25;2.00;;;18.20;99.90;;;;;;2088676;28;20025;-70
2022/06/09 05:29:10;;;;;;;2.70;1.80;;;18.20;99.90;;;;;;2088680;28;20483;-70
2022/06/09 05:30:22;;;;;;;4.30;2.20;;;18.20;99.90;;;;;;2088568;28;20090;-69
2022/06/09 05:31:23;;;;;;;2.63;1.90;;;18.20;99.90;;;;;;2088641;28;20033;-71
2022/06/09 05:32:24;;;;;;;3.75;1.90;;;18.20;99.90;;;;;;2088625;28;20093;-71
2022/06/09 05:33:24;;;;;;;3.40;2.10;;;18.30;99.90;;;;;;2088564;28;20665;-70